Time;durP1;ratioP1;P1;durP2;ratioP2;P2;SDS_P1;SDS_P2;PMS_P1;PMS_P2;Temp;Humidity;BMP_temperature;BMP_pressure;BME280_temperature;BME280_humidity;BME280_pressure;Samples;Min_cycle;Max_cycle;Signal;HPM_P1;HPM_P2
2022/09/20 00:00:44;;;;;;;5.90;4.75;;;;;;;12.28;72.55;101781.09;5078056;28;20370;-38
2022/09/20 00:03:10;;;;;;;5.90;4.72;;;;;;;12.27;71.62;101771.31;5095794;28;20544;-38
2022/09/20 00:05:38;;;;;;;6.40;4.35;;;;;;;12.29;71.51;101774.69;5096095;28;20154;-38
2022/09/20 00:08:06;;;;;;;4.18;3.67;;;;;;;12.25;72.06;101783.28;5095919;28;20077;-38
2022/09/20 00:10:36;;;;;;;4.55;4.13;;;;;;;12.18;71.53;101793.91;5095682;28;20032;-38
2022/09/20 00:13:03;;;;;;;6.00;5.40;;;;;;;12.10;71.81;101784.00;5096294;28;20520;-38
2022/09/20 00:15:29;;;;;;;5.03;4.22;;;;;;;12.01;72.24;101776.94;5095694;28;20031;-38
2022/09/20 00:17:56;;;;;;;5.45;4.95;;;;;;;11.91;73.31;101781.69;5101647;28;20035;-39
2022/09/20 00:20:22;;;;;;;7.60;6.22;;;;;;;11.57;75.21;101763.81;5061536;28;20361;-39
2022/09/20 00:22:49;;;;;;;4.30;3.90;;;;;;;11.64;74.10;101778.28;5095452;28;20032;-38
2022/09/20 00:25:16;;;;;;;5.18;4.05;;;;;;;11.65;73.40;101782.66;5096411;28;20081;-38
2022/09/20 00:27:42;;;;;;;7.45;5.05;;;;;;;11.43;74.37;101768.84;5096017;28;20097;-38
2022/09/20 00:30:08;;;;;;;6.55;4.25;;;;;;;11.52;73.85;101782.34;5095921;28;20024;-38
2022/09/20 00:32:34;;;;;;;4.97;4.00;;;;;;;11.29;73.33;101750.72;5094742;28;20028;-38
2022/09/20 00:35:09;;;;;;;6.88;4.22;;;;;;;11.36;73.46;101769.69;5095658;28;20034;-38
2022/09/20 00:37:36;;;;;;;;;;;;;;;11.33;74.14;101784.31;5078108;28;20494;-38
2022/09/20 00:40:04;;;;;;;4.88;3.72;;;;;;;11.23;74.18;101789.00;5096050;28;19912;-38
2022/09/20 00:42:31;;;;;;;5.10;4.60;;;;;;;11.06;74.06;101779.22;5077535;28;20040;-39
2022/09/20 00:44:59;;;;;;;4.05;3.50;;;;;;;11.16;73.98;101799.59;5094904;28;20476;-38
2022/09/20 00:47:37;;;;;;;5.53;4.32;;;;;;;11.13;73.29;101799.09;5095388;28;20036;-38
2022/09/20 00:50:31;;;;;;;5.47;4.25;;;;;;;11.17;73.39;101808.50;5095378;28;20028;-38
2022/09/20 00:53:09;;;;;;;5.00;4.60;;;;;;;11.14;73.08;101811.50;5081675;28;20081;-38
2022/09/20 00:55:42;;;;;;;6.97;4.97;;;;;;;11.12;72.95;101810.81;5094923;28;20028;-38
2022/09/20 00:58:08;;;;;;;5.93;3.83;;;;;;;11.14;73.13;101816.88;5095117;28;20028;-38
2022/09/20 01:00:36;;;;;;;5.28;4.68;;;;;;;10.99;73.05;101798.69;5099104;28;20051;-38
2022/09/20 01:03:05;;;;;;;5.22;4.07;;;;;;;11.09;73.05;101820.06;5104080;28;20043;-38
2022/09/20 01:05:31;;;;;;;3.67;3.38;;;;;;;10.95;73.05;101796.50;5087114;28;20024;-38
2022/09/20 01:07:57;;;;;;;5.22;3.78;;;;;;;11.08;73.20;101826.44;5086887;28;20028;-38
2022/09/20 01:10:23;;;;;;;6.13;5.03;;;;;;;10.98;72.73;101812.31;5103379;28;20043;-38
2022/09/20 01:12:52;;;;;;;4.65;4.25;;;;;;;10.99;73.42;101825.56;5095874;28;20492;-38
2022/09/20 01:15:19;;;;;;;5.07;4.57;;;;;;;10.94;74.11;101833.28;5077649;28;20024;-38
2022/09/20 01:17:51;;;;;;;5.13;4.63;;;;;;;10.84;73.75;101809.22;5064157;28;20102;-38
2022/09/20 01:20:23;;;;;;;4.45;4.05;;;;;;;10.78;73.76;101809.03;5101087;28;20028;-38
2022/09/20 01:23:11;;;;;;;5.45;4.70;;;;;;;10.68;74.35;101811.00;5100552;28;20133;-38
2022/09/20 01:26:16;;;;;;;4.40;4.00;;;;;;;10.77;74.29;101836.91;5081962;28;20036;-38
2022/09/20 01:28:47;;;;;;;4.70;3.60;;;;;;;10.64;74.48;101827.47;5068851;28;20115;-38
2022/09/20 01:31:35;;;;;;;3.83;3.53;;;;;;;10.56;74.40;101811.28;5094985;28;20124;-38
2022/09/20 01:34:10;;;;;;;5.10;3.40;;;;;;;10.58;74.46;101811.97;5095884;28;20043;-38
2022/09/20 01:36:51;;;;;;;3.97;3.58;;;;;;;10.50;74.67;101806.56;5077102;28;20024;-38
2022/09/20 01:39:39;;;;;;;4.78;4.38;;;;;;;10.43;74.57;101802.81;5076612;28;20039;-38
2022/09/20 01:42:08;;;;;;;3.97;3.40;;;;;;;10.44;74.85;101824.16;5077568;28;20131;-38
2022/09/20 01:45:01;;;;;;;4.28;3.97;;;;;;;10.35;74.61;101816.22;5094383;28;20040;-38
2022/09/20 01:47:40;;;;;;;4.20;3.80;;;;;;;10.28;75.01;101814.13;5046350;28;20480;-38
2022/09/20 01:50:35;;;;;;;4.22;3.92;;;;;;;10.30;75.29;101815.81;5095212;28;20502;-38
2022/09/20 01:53:38;;;;;;;3.92;3.63;;;;;;;10.33;75.04;101831.66;5079700;28;20039;-38
2022/09/20 01:56:43;;;;;;;5.55;3.83;;;;;;;10.21;75.40;101823.81;5065087;28;20032;-38
2022/09/20 01:59:37;;;;;;;4.28;3.90;;;;;;;10.02;75.00;101791.81;5068573;28;20040;-38
2022/09/20 02:02:26;;;;;;;3.60;3.30;;;;;;;10.16;75.52;101827.97;5079468;28;20042;-38
2022/09/20 02:08:41;;;;;;;6.78;5.25;;;;;;;10.03;76.99;101831.09;5032306;28;20042;-38
2022/09/20 02:11:16;;;;;;;4.32;3.92;;;;;;;10.01;77.18;101825.00;5002901;28;20385;-39
2022/09/20 02:14:21;;;;;;;5.15;3.45;;;;;;;9.97;75.90;101819.09;5031888;28;20026;-38
2022/09/20 02:16:54;;;;;;;4.60;4.10;;;;;;;9.96;76.04;101816.59;5007184;28;20053;-38
2022/09/20 02:19:32;;;;;;;4.15;3.75;;;;;;;9.95;76.05;101820.25;5015652;28;20497;-38
2022/09/20 02:22:17;;;;;;;4.10;3.70;;;;;;;9.92;75.96;101815.19;5031706;28;20041;-38
2022/09/20 02:24:47;;;;;;;;;;;;;;;9.93;76.50;101812.38;5015818;28;20052;-38
2022/09/20 02:27:41;;;;;;;3.15;2.88;;;;;;;9.89;75.68;101805.63;5031368;28;19916;-38
2022/09/20 02:30:34;;;;;;;4.60;3.90;;;;;;;9.85;75.99;101815.84;5018157;28;20030;-38
2022/09/20 02:33:16;;;;;;;4.40;4.00;;;;;;;9.79;75.80;101811.09;5018603;28;20059;-38
2022/09/20 02:36:13;;;;;;;4.07;3.70;;;;;;;9.77;75.89;101813.09;5031728;28;20147;-38
2022/09/20 02:39:07;;;;;;;4.70;4.30;;;;;;;9.67;76.33;101801.59;5039230;28;20055;-38
2022/09/20 02:41:56;;;;;;;3.90;3.47;;;;;;;9.75;76.19;101815.09;5080220;28;20039;-38
2022/09/20 02:44:38;;;;;;;5.53;4.65;;;;;;;9.70;76.38;101806.66;5083554;28;20036;-38
2022/09/20 02:47:19;;;;;;;4.93;4.47;;;;;;;9.69;76.24;101808.50;5076639;28;20469;-38
2022/09/20 02:50:17;;;;;;;5.50;5.00;;;;;;;9.66;76.02;101819.53;5080768;28;20486;-38
2022/09/20 02:53:07;;;;;;;4.95;4.50;;;;;;;9.57;76.26;101806.22;5067495;28;20021;-38
2022/09/20 02:55:48;;;;;;;4.38;3.97;;;;;;;9.58;76.09;101816.75;5097324;28;20020;-38
2022/09/20 02:58:54;;;;;;;5.75;4.55;;;;;;;9.56;76.02;101818.75;5081395;28;20093;-38
2022/09/20 03:01:37;;;;;;;4.72;4.32;;;;;;;9.48;76.27;101811.47;5071670;28;20028;-38
2022/09/20 03:04:21;;;;;;;11.35;4.57;;;;;;;9.44;76.12;101804.75;5046662;28;20116;-38
2022/09/20 03:07:21;;;;;;;6.30;5.07;;;;;;;9.49;76.17;101815.03;5081778;28;20039;-38
2022/09/20 03:10:15;;;;;;;4.28;3.88;;;;;;;9.46;76.01;101812.66;5085012;28;20036;-38
2022/09/20 03:13:07;;;;;;;5.20;4.70;;;;;;;9.44;76.33;101812.78;5098054;28;20024;-38
2022/09/20 03:16:12;;;;;;;5.57;5.07;;;;;;;9.30;76.48;101795.41;5097113;28;20097;-38
2022/09/20 03:19:03;;;;;;;4.82;4.30;;;;;;;9.39;76.26;101808.88;5053340;28;20368;-38
2022/09/20 03:21:59;;;;;;;5.68;4.68;;;;;;;9.35;76.52;101823.59;5065552;28;20039;-38
2022/09/20 03:24:39;;;;;;;;;;;;;;;9.29;77.14;101814.31;5084896;28;20035;-38
2022/09/20 03:27:23;;;;;;;5.28;4.32;;;;;;;9.26;77.02;101817.31;5097476;28;19908;-38
2022/09/20 03:30:28;;;;;;;6.13;5.43;;;;;;;9.21;76.79;101816.91;5097989;28;20031;-38
2022/09/20 03:33:08;;;;;;;6.13;5.22;;;;;;;9.11;76.94;101804.41;5054367;28;20060;-38
2022/09/20 03:35:50;;;;;;;6.10;4.93;;;;;;;9.09;76.54;101802.88;5096796;28;20122;-38
2022/09/20 03:38:29;;;;;;;7.13;5.97;;;;;;;9.11;76.58;101811.63;5080500;28;20059;-38
2022/09/20 03:41:16;;;;;;;8.23;7.13;;;;;;;9.11;76.76;101816.97;5080626;28;20028;-38
2022/09/20 03:44:10;;;;;;;7.50;6.15;;;;;;;9.11;76.81;101814.28;5064298;28;20507;-38
2022/09/20 03:47:02;;;;;;;5.40;4.90;;;;;;;9.07;76.86;101805.72;5083210;28;20456;-38
2022/09/20 03:50:08;;;;;;;7.00;6.25;;;;;;;9.07;77.76;101805.72;5097879;28;20102;-38
2022/09/20 03:52:59;;;;;;;7.18;6.28;;;;;;;9.08;77.39;101801.19;5072460;28;20073;-38
2022/09/20 03:55:42;;;;;;;6.22;5.57;;;;;;;9.03;77.00;101798.97;5069183;28;20499;-38
2022/09/20 03:58:39;;;;;;;7.07;6.38;;;;;;;9.07;77.04;101807.56;5081491;28;20114;-38
2022/09/20 04:01:34;;;;;;;8.75;5.85;;;;;;;9.04;76.70;101800.63;5097442;28;20051;-38
2022/09/20 04:04:26;;;;;;;6.05;5.45;;;;;;;8.89;76.58;101778.88;5098476;28;20024;-38
2022/09/20 04:07:20;;;;;;;9.27;6.13;;;;;;;9.06;76.84;101813.91;5086537;28;20028;-38
2022/09/20 04:10:15;;;;;;;11.48;8.88;;;;;;;8.90;77.66;101788.59;5099673;28;20026;-38
2022/09/20 04:13:06;;;;;;;7.82;6.32;;;;;;;8.94;77.46;101807.06;5082613;28;20028;-38
2022/09/20 04:15:56;;;;;;;7.15;6.45;;;;;;;8.84;77.54;101799.94;5078449;28;20133;-38
2022/09/20 04:18:32;;;;;;;4.78;4.38;;;;;;;8.72;77.02;101777.00;5078904;28;20032;-38
2022/09/20 04:21:06;;;;;;;6.70;6.00;;;;;;;8.85;77.40;101804.28;5077782;28;20024;-38
2022/09/20 04:23:57;;;;;;;6.25;5.65;;;;;;;8.82;77.31;101812.63;5095732;28;20043;-38
2022/09/20 04:26:29;;;;;;;7.38;5.35;;;;;;;8.84;77.11;101809.78;5049664;28;20024;-38
2022/09/20 04:29:15;;;;;;;7.05;5.85;;;;;;;8.78;77.19;101811.22;5078729;28;20038;-37
2022/09/20 04:32:13;;;;;;;7.22;5.68;;;;;;;8.78;77.34;101813.06;5081198;28;20028;-38
2022/09/20 04:37:37;;;;;;;7.00;6.30;;;;;;;8.72;77.42;101815.34;5081562;28;20059;-38
2022/09/20 04:40:42;;;;;;;10.55;7.75;;;;;;;8.72;77.62;101812.66;5096893;28;20098;-38
2022/09/20 04:43:34;;;;;;;8.18;7.38;;;;;;;8.69;78.25;101809.44;5062753;28;20496;-37
2022/09/20 04:46:23;;;;;;;5.70;5.20;;;;;;;8.63;77.74;101804.69;5075011;28;20036;-38
2022/09/20 04:49:26;;;;;;;8.65;7.03;;;;;;;8.66;77.71;101813.25;5073769;28;20120;-38
2022/09/20 04:52:33;;;;;;;6.70;6.10;;;;;;;8.64;78.22;101809.88;5074145;28;20036;-38
2022/09/20 04:55:34;;;;;;;7.72;5.85;;;;;;;8.63;78.08;101808.19;5063379;28;20020;-37
2022/09/20 04:58:32;;;;;;;5.72;5.07;;;;;;;8.49;78.11;101793.47;5075020;28;20067;-37
2022/09/20 05:01:31;;;;;;;10.25;6.25;;;;;;;8.57;78.47;101803.44;5060514;28;20056;-37
2022/09/20 05:04:35;;;;;;;8.48;6.25;;;;;;;8.57;77.85;101816.81;5074371;28;20078;-37
2022/09/20 05:07:37;;;;;;;8.35;5.72;;;;;;;8.48;78.34;101804.31;5062365;28;20048;-37
2022/09/20 05:10:26;;;;;;;6.15;5.55;;;;;;;8.48;78.12;101805.16;5073864;28;20380;-37
2022/09/20 05:13:09;;;;;;;6.35;5.70;;;;;;;8.48;78.34;101807.00;5073996;28;20036;-37
2022/09/20 05:15:43;;;;;;;6.88;6.10;;;;;;;8.53;78.33;101810.09;5073748;28;20039;-39
2022/09/20 05:18:41;;;;;;;6.87;6.03;;;;;;;8.62;78.41;101803.84;5073237;28;20503;-38
2022/09/20 05:21:23;;;;;;;5.95;5.35;;;;;;;8.69;79.43;101812.97;5073690;28;20024;-38
2022/09/20 05:24:01;;;;;;;7.13;5.82;;;;;;;8.79;78.99;101806.72;5073168;28;20032;-38
2022/09/20 05:26:45;;;;;;;8.90;6.88;;;;;;;8.80;79.14;101808.41;5057377;28;20089;-37
2022/09/20 05:29:37;;;;;;;12.73;7.85;;;;;;;8.81;80.03;101810.94;5073585;28;20031;-37
2022/09/20 05:32:19;;;;;;;12.05;6.88;;;;;;;8.73;79.96;101792.09;5059958;28;20028;-37
2022/09/20 05:34:51;;;;;;;12.38;9.18;;;;;;;8.78;80.22;101800.50;5073376;28;20039;-37
2022/09/20 05:37:42;;;;;;;13.68;9.25;;;;;;;8.76;80.58;101805.19;5073006;28;20035;-37
2022/09/20 05:40:34;;;;;;;11.15;8.10;;;;;;;8.74;80.38;101800.97;5073634;28;20036;-37
2022/09/20 05:43:10;;;;;;;12.73;9.02;;;;;;;8.68;80.58;101810.44;5073331;28;20068;-38
2022/09/20 05:46:15;;;;;;;15.48;10.23;;;;;;;8.69;81.21;101817.47;5073421;28;20365;-38
2022/09/20 05:48:54;;;;;;;12.38;7.70;;;;;;;8.71;80.47;101816.34;5062440;28;20028;-37
2022/09/20 05:51:49;;;;;;;12.38;8.52;;;;;;;8.62;79.88;101800.34;5075441;28;20039;-37
2022/09/20 05:54:48;;;;;;;10.45;7.65;;;;;;;8.76;79.95;101812.38;5060545;28;20112;-37
2022/09/20 05:57:38;;;;;;;10.38;8.25;;;;;;;8.85;79.95;101817.69;5074305;28;20483;-37
2022/09/20 06:00:12;;;;;;;15.15;8.93;;;;;;;8.78;80.76;101810.38;5061377;28;20038;-37
2022/09/20 06:03:08;;;;;;;17.15;7.60;;;;;;;8.72;80.41;101812.66;5081029;28;20028;-37
2022/09/20 06:06:12;;;;;;;13.98;10.00;;;;;;;8.76;80.66;101823.91;5079946;28;20468;-37
2022/09/20 06:09:05;;;;;;;9.63;7.88;;;;;;;8.55;80.55;101781.31;5074785;28;20499;-37
2022/09/20 06:12:11;;;;;;;10.07;7.65;;;;;;;8.93;80.04;101835.69;5074664;28;20029;-37
2022/09/20 06:14:50;;;;;;;7.38;5.93;;;;;;;9.01;79.76;101837.63;5061937;28;20024;-38
2022/09/20 06:17:29;;;;;;;11.88;7.03;;;;;;;9.06;79.55;101833.53;5074372;28;20032;-38
2022/09/20 06:20:25;;;;;;;21.67;11.18;;;;;;;9.09;80.14;101840.41;5074046;28;20024;-37
2022/09/20 06:22:55;;;;;;;13.48;9.45;;;;;;;9.16;80.30;101837.97;5059232;28;20090;-37
2022/09/20 06:25:30;;;;;;;9.32;7.32;;;;;;;9.27;79.94;101840.44;5074540;28;20048;-38
2022/09/20 06:28:08;;;;;;;10.93;8.93;;;;;;;9.36;79.30;101836.00;5073083;28;20100;-37
2022/09/20 06:30:38;;;;;;;8.70;7.43;;;;;;;9.51;79.54;101842.53;5074675;28;20094;-38
2022/09/20 06:33:25;;;;;;;9.70;7.40;;;;;;;9.65;79.18;101850.03;5077420;28;20031;-38
2022/09/20 06:41:25;;;;;;;9.93;7.00;;;;;;;9.72;78.72;101836.84;5076561;28;20020;-38
2022/09/20 06:42:09;;;;;;;10.15;7.63;;;;;;;10.01;78.98;101838.41;5066926;28;20136;-37
2022/09/20 06:44:38;;;;;;;8.57;7.43;;;;;;;10.10;78.21;101840.16;5077764;28;20380;-38
2022/09/20 06:47:07;;;;;;;11.90;9.23;;;;;;;10.24;77.96;101836.09;5076113;28;20028;-38
2022/09/20 06:49:34;;;;;;;20.13;13.38;;;;;;;10.37;78.11;101846.44;5077016;28;20506;-37
2022/09/20 06:52:04;;;;;;;23.08;13.60;;;;;;;10.44;77.31;101844.81;5076961;28;20040;-37
2022/09/20 06:54:30;;;;;;;20.17;10.38;;;;;;;10.55;77.12;101849.91;5075898;28;20051;-37
2022/09/20 06:56:58;;;;;;;19.98;11.88;;;;;;;10.64;76.95;101848.94;5076466;28;20024;-38
2022/09/20 06:59:24;;;;;;;14.10;10.48;;;;;;;10.74;76.70;101856.06;5078324;28;20392;-38
2022/09/20 07:01:50;;;;;;;20.05;11.77;;;;;;;10.82;76.29;101861.44;5075601;28;20119;-38
2022/09/20 07:04:16;;;;;;;12.82;10.02;;;;;;;10.91;76.12;101867.72;5059042;28;20116;-38
2022/09/20 07:06:42;;;;;;;14.25;9.02;;;;;;;11.00;75.93;101859.53;5077196;28;20064;-37
2022/09/20 07:09:10;;;;;;;16.20;12.40;;;;;;;11.03;76.11;101847.59;5076652;28;20036;-37
2022/09/20 07:11:36;;;;;;;16.27;10.63;;;;;;;11.13;75.87;101853.69;5076872;28;20123;-37
2022/09/20 07:14:02;;;;;;;16.73;11.88;;;;;;;11.22;76.15;101857.25;5077337;28;20083;-38
2022/09/20 07:16:28;;;;;;;11.73;9.93;;;;;;;11.31;75.78;101866.16;5077081;28;20021;-37
2022/09/20 07:18:55;;;;;;;11.55;9.07;;;;;;;11.38;75.22;101861.81;5077012;28;20039;-37
2022/09/20 07:21:21;;;;;;;24.25;14.98;;;;;;;11.33;75.54;101843.50;5075834;28;20111;-37
2022/09/20 07:23:48;;;;;;;25.67;16.63;;;;;;;11.47;75.62;101862.69;5077082;28;20024;-37
2022/09/20 07:26:26;;;;;;;14.43;10.70;;;;;;;11.53;75.62;101857.47;5076911;28;20093;-37
2022/09/20 07:28:52;;;;;;;23.73;15.07;;;;;;;11.61;75.93;101862.88;5075432;28;20044;-38
2022/09/20 07:31:21;;;;;;;17.25;13.63;;;;;;;11.66;75.41;101867.75;5076626;28;20404;-38
2022/09/20 07:33:47;;;;;;;23.35;16.42;;;;;;;11.67;75.68;101869.44;5076577;28;20031;-38
2022/09/20 07:36:13;;;;;;;23.58;16.60;;;;;;;11.67;75.62;101869.44;5075571;28;20028;-38
2022/09/20 07:38:40;;;;;;;22.98;15.05;;;;;;;11.63;75.70;101855.47;5075029;28;20052;-38
2022/09/20 07:41:07;;;;;;;16.80;10.95;;;;;;;11.73;74.81;101858.00;5058919;28;20031;-38
2022/09/20 07:43:33;;;;;;;23.77;15.27;;;;;;;11.76;75.24;101856.84;5094949;28;20080;-38
2022/09/20 07:45:59;;;;;;;23.10;15.07;;;;;;;11.81;75.11;101862.53;5078705;28;20032;-38
2022/09/20 07:48:29;;;;;;;21.85;14.70;;;;;;;11.87;74.39;101863.72;5078409;28;20024;-38
2022/09/20 07:51:01;;;;;;;21.40;14.95;;;;;;;11.92;74.65;101878.44;5096512;28;20039;-38
2022/09/20 07:53:27;;;;;;;22.80;17.02;;;;;;;11.86;75.04;101883.59;5078940;28;20465;-38
2022/09/20 07:55:59;;;;;;;20.77;13.38;;;;;;;11.93;74.08;101877.41;5096721;28;20430;-38
2022/09/20 07:58:25;;;;;;;24.38;15.82;;;;;;;11.98;74.65;101893.06;5096357;28;20055;-38
2022/09/20 08:00:52;;;;;;;21.77;15.27;;;;;;;11.98;74.15;101887.69;5096025;28;20384;-38
2022/09/20 08:03:18;;;;;;;22.85;16.02;;;;;;;11.99;74.34;101892.88;5095995;28;20035;-38
2022/09/20 08:05:44;;;;;;;23.63;15.50;;;;;;;11.99;74.23;101890.19;5077976;28;20357;-38
2022/09/20 08:08:10;;;;;;;18.42;13.93;;;;;;;11.99;74.41;101889.34;5077483;28;20420;-38
2022/09/20 08:10:40;;;;;;;20.63;14.43;;;;;;;11.97;74.22;101877.91;5097276;28;20537;-38
2022/09/20 08:13:07;;;;;;;19.05;14.77;;;;;;;12.01;74.56;101881.94;5078842;28;20028;-38
2022/09/20 08:15:32;;;;;;;18.45;14.85;;;;;;;12.05;74.96;101877.06;5078037;28;20060;-38
2022/09/20 08:17:58;;;;;;;18.98;14.38;;;;;;;12.09;74.72;101883.78;5096417;28;20035;-38
2022/09/20 08:20:24;;;;;;;19.98;14.43;;;;;;;12.05;74.59;101880.59;5095891;28;20032;-38
2022/09/20 08:22:50;;;;;;;18.05;13.82;;;;;;;12.11;74.17;101887.16;5095999;28;20032;-38
2022/09/20 08:25:16;;;;;;;17.80;13.25;;;;;;;12.12;74.16;101878.09;5078342;28;20084;-38
2022/09/20 08:27:42;;;;;;;17.58;13.25;;;;;;;12.23;73.98;101883.13;5077833;28;20391;-38
2022/09/20 08:30:09;;;;;;;25.67;14.23;;;;;;;12.35;73.72;101887.16;5077394;28;20032;-38
2022/09/20 08:32:37;;;;;;;24.15;14.80;;;;;;;12.18;73.76;101862.09;5095366;28;20043;-38
2022/09/20 08:35:03;;;;;;;22.00;13.93;;;;;;;12.56;73.56;101905.47;5077591;28;20472;-38
2022/09/20 08:37:29;;;;;;;17.10;12.98;;;;;;;12.74;73.47;101897.19;5095623;28;20116;-38
2022/09/20 08:39:55;;;;;;;24.48;14.95;;;;;;;13.06;72.31;101910.75;5095209;28;20053;-38
2022/09/20 08:42:27;;;;;;;21.92;15.40;;;;;;;13.14;72.13;101886.41;5076867;28;20121;-38
2022/09/20 08:44:58;;;;;;;12.98;10.95;;;;;;;13.42;71.24;101899.47;5078471;28;20024;-38
2022/09/20 08:47:29;;;;;;;17.70;12.70;;;;;;;13.74;70.43;101903.81;5095223;28;20510;-38
2022/09/20 08:49:56;;;;;;;20.25;14.85;;;;;;;13.91;69.66;101899.13;5096006;28;20040;-38
2022/09/20 08:52:29;;;;;;;14.05;11.00;;;;;;;14.14;69.23;101894.56;5077267;28;20023;-38
2022/09/20 08:54:58;;;;;;;19.95;15.20;;;;;;;14.47;68.74;101905.09;5077039;28;20028;-39
2022/09/20 08:57:28;;;;;;;25.23;15.82;;;;;;;14.74;67.61;101905.50;5095251;28;20032;-38
2022/09/20 08:59:54;;;;;;;19.80;12.43;;;;;;;15.00;67.36;101905.03;5095420;28;20028;-38
2022/09/20 09:02:21;;;;;;;15.68;11.65;;;;;;;15.11;66.85;101887.50;5095402;28;20039;-38
2022/09/20 09:04:50;;;;;;;22.52;15.65;;;;;;;15.26;66.05;101899.13;5095568;28;20115;-38
2022/09/20 09:07:20;;;;;;;22.23;15.18;;;;;;;15.36;65.59;101904.25;5077615;28;20020;-37
2022/09/20 09:09:50;;;;;;;20.45;14.25;;;;;;;15.43;65.32;101899.78;5077099;28;20115;-38
2022/09/20 09:12:28;;;;;;;12.68;10.02;;;;;;;15.49;65.21;101900.88;5077122;28;20047;-38
2022/09/20 09:15:02;;;;;;;17.38;13.02;;;;;;;15.52;64.50;101896.94;5095103;28;20032;-38
2022/09/20 09:17:29;;;;;;;15.80;11.05;;;;;;;15.56;64.63;101901.75;5060873;28;20491;-38
2022/09/20 09:19:58;;;;;;;16.67;12.88;;;;;;;15.78;64.47;101907.25;5094785;28;20036;-37
2022/09/20 09:22:44;;;;;;;11.75;9.52;;;;;;;16.05;63.73;101900.22;5094747;28;20400;-37
2022/09/20 09:25:33;;;;;;;17.08;12.77;;;;;;;16.35;62.57;101900.06;5076336;28;20093;-40
2022/09/20 09:28:11;;;;;;;9.50;8.30;;;;;;;16.64;61.96;101890.84;5076574;28;20499;-38
2022/09/20 09:30:40;;;;;;;7.75;6.93;;;;;;;17.11;61.32;101896.59;5076574;28;20471;-38
2022/09/20 09:33:36;;;;;;;11.90;9.32;;;;;;;17.39;59.95;101900.03;5060523;28;20024;-38
2022/09/20 09:36:06;;;;;;;13.70;10.15;;;;;;;17.72;59.11;101904.72;5063075;28;20043;-38
2022/09/20 09:38:36;;;;;;;8.02;7.22;;;;;;;17.90;59.24;101906.03;5076454;28;20035;-38
2022/09/20 09:41:04;;;;;;;14.75;10.75;;;;;;;18.04;58.31;101905.00;5095002;28;20032;-38
2022/09/20 09:43:34;;;;;;;10.35;8.18;;;;;;;17.99;57.36;101893.91;5094291;28;20484;-39
2022/09/20 09:46:20;;;;;;;12.52;8.57;;;;;;;18.12;56.78;101912.13;5095509;28;20429;-38
2022/09/20 09:48:48;;;;;;;11.07;9.10;;;;;;;18.29;56.82;101916.09;5079855;28;20035;-39
2022/09/20 09:51:17;;;;;;;8.32;7.53;;;;;;;18.47;56.57;101901.03;5103641;28;20430;-39
2022/09/20 09:53:45;;;;;;;10.68;8.18;;;;;;;18.59;56.05;101902.06;5085328;28;20392;-39
2022/09/20 09:56:39;;;;;;;8.93;8.07;;;;;;;18.64;52.02;101906.88;5101457;28;20039;-39
2022/09/20 09:59:28;;;;;;;7.57;6.80;;;;;;;18.67;52.70;101901.00;5088624;28;20049;-39
2022/09/20 10:02:22;;;;;;;7.22;6.50;;;;;;;19.00;51.25;101905.53;5094405;28;20038;-39
2022/09/20 10:05:27;;;;;;;9.35;7.47;;;;;;;19.40;49.09;101900.78;5063768;28;20036;-38
2022/09/20 10:08:14;;;;;;;9.60;7.28;;;;;;;19.54;49.19;101899.66;5057861;28;20028;-39
2022/09/20 10:10:58;;;;;;;6.68;6.03;;;;;;;19.93;49.83;101905.13;5103585;28;20036;-39
2022/09/20 10:14:04;;;;;;;6.63;5.47;;;;;;;20.54;46.95;101894.50;5104096;28;20035;-39
2022/09/20 10:16:58;;;;;;;4.85;3.95;;;;;;;20.55;47.03;101885.28;5062317;28;20089;-39
2022/09/20 10:19:47;;;;;;;2.33;2.03;;;;;;;20.56;45.23;101898.72;5088001;28;20028;-39
2022/09/20 10:22:39;;;;;;;3.33;3.03;;;;;;;21.35;44.98;101893.38;5101134;28;20028;-39
2022/09/20 10:25:29;;;;;;;5.32;3.40;;;;;;;21.46;43.26;101891.81;5086659;28;20051;-39
2022/09/20 10:28:23;;;;;;;3.70;2.78;;;;;;;21.61;43.35;101892.22;5101112;28;20036;-39
2022/09/20 10:31:18;;;;;;;2.67;2.47;;;;;;;21.41;44.03;101887.03;5086202;28;20028;-39
2022/09/20 10:34:16;;;;;;;4.60;3.78;;;;;;;21.05;44.07;101887.91;5071763;28;20020;-40
2022/09/20 10:36:57;;;;;;;5.65;5.15;;;;;;;20.91;44.08;101872.72;5084868;28;20052;-39
2022/09/20 10:39:37;;;;;;;5.80;4.28;;;;;;;20.96;44.67;101879.16;5099645;28;20348;-39
2022/09/20 10:46:05;;;;;;;5.72;5.22;;;;;;;21.84;44.30;101875.06;5060636;28;20086;-39
2022/09/20 10:48:39;;;;;;;5.20;4.65;;;;;;;22.52;42.65;101867.38;5082889;28;20074;-39
2022/09/20 10:51:18;;;;;;;5.13;4.70;;;;;;;22.99;41.27;101869.22;5098082;28;20089;-39
2022/09/20 10:54:05;;;;;;;5.88;5.10;;;;;;;23.41;39.75;101863.50;5097803;28;20032;-40
2022/09/20 10:56:51;;;;;;;5.55;4.28;;;;;;;23.62;38.25;101845.50;5079664;28;20418;-40
2022/09/20 10:59:50;;;;;;;3.58;3.28;;;;;;;24.13;36.56;101854.63;5097739;28;20054;-39
2022/09/20 11:02:55;;;;;;;2.45;2.25;;;;;;;25.20;37.23;101854.38;5081706;28;20075;-39
2022/09/20 11:05:48;;;;;;;2.22;1.95;;;;;;;25.23;34.80;101850.31;5073154;28;20058;-39
2022/09/20 11:08:21;;;;;;;1.48;1.38;;;;;;;25.08;38.62;101857.28;5083904;28;20036;-39
2022/09/20 11:10:53;;;;;;;2.33;1.70;;;;;;;25.47;36.63;101848.13;5098200;28;20042;-47
2022/09/20 11:13:28;;;;;;;1.60;1.50;;;;;;;27.26;34.76;101837.41;5097688;28;20056;-39
2022/09/20 11:16:05;;;;;;;1.85;1.70;;;;;;;28.34;29.43;101842.94;5097772;28;20034;-40
2022/09/20 11:18:39;;;;;;;1.60;1.50;;;;;;;27.86;31.58;101839.66;5097097;28;20535;-40
2022/09/20 11:21:16;;;;;;;1.33;1.15;;;;;;;27.74;33.12;101843.53;5097133;28;20089;-40
2022/09/20 11:23:54;;;;;;;1.42;1.02;;;;;;;27.72;33.68;101837.47;5079092;28;20036;-39
2022/09/20 11:26:36;;;;;;;1.20;1.08;;;;;;;27.17;32.19;101839.00;5097132;28;20459;-38
2022/09/20 11:29:19;;;;;;;1.85;1.75;;;;;;;26.88;32.82;101838.66;5079095;28;20032;-39
2022/09/20 11:31:49;;;;;;;1.17;1.08;;;;;;;26.61;33.65;101843.22;5078993;28;20086;-40
2022/09/20 11:34:29;;;;;;;1.58;1.25;;;;;;;26.67;33.53;101837.75;5096638;28;20029;-40
2022/09/20 11:37:01;;;;;;;1.48;1.38;;;;;;;26.72;34.35;101840.53;5097083;28;20409;-39
2022/09/20 11:39:52;;;;;;;1.30;1.20;;;;;;;26.10;33.02;101836.56;5096575;28;20036;-38
2022/09/20 11:42:23;;;;;;;0.98;0.88;;;;;;;25.27;35.95;101835.81;5084294;28;20047;-38
2022/09/20 11:44:49;;;;;;;1.48;1.30;;;;;;;24.96;36.84;101828.28;5098878;28;20089;-38
2022/09/20 11:47:37;;;;;;;1.38;1.27;;;;;;;24.76;34.94;101837.09;5096676;28;20153;-39
2022/09/20 11:50:43;;;;;;;1.15;0.98;;;;;;;24.69;36.45;101834.56;5082429;28;20420;-38
2022/09/20 11:53:39;;;;;;;1.30;1.20;;;;;;;24.93;35.99;101830.47;5084916;28;20024;-39
2022/09/20 11:56:19;;;;;;;1.77;1.10;;;;;;;24.95;36.49;101821.97;5065861;28;20063;-38
2022/09/20 11:58:48;;;;;;;3.33;1.30;;;;;;;24.54;36.62;101829.69;5096799;28;20074;-40
2022/09/20 12:01:24;;;;;;;1.48;1.38;;;;;;;24.07;37.77;101841.03;5078582;28;20380;-39
2022/09/20 12:03:54;;;;;;;1.30;1.20;;;;;;;23.72;38.51;101842.94;5096753;28;20484;-38
2022/09/20 12:06:26;;;;;;;1.20;1.10;;;;;;;23.43;38.67;101822.94;5078248;28;20028;-38
2022/09/20 12:08:52;;;;;;;1.17;1.08;;;;;;;23.36;39.86;101819.53;5078542;28;20070;-38
2022/09/20 12:11:37;;;;;;;1.40;1.30;;;;;;;23.62;37.66;101829.03;5096588;28;20024;-38
2022/09/20 12:14:24;;;;;;;1.98;1.30;;;;;;;24.31;36.15;101828.81;5096666;28;20039;-38
2022/09/20 12:16:50;;;;;;;1.95;1.50;;;;;;;25.22;36.22;101823.91;5096872;28;20031;-40
2022/09/20 12:19:37;;;;;;;2.63;1.10;;;;;;;24.98;34.28;101821.47;5078662;28;20035;-39
2022/09/20 12:22:16;;;;;;;1.00;0.90;;;;;;;26.33;34.03;101813.28;5082911;28;20155;-41
2022/09/20 12:24:42;;;;;;;1.92;1.75;;;;;;;28.49;30.76;101803.38;5096637;28;20039;-39
2022/09/20 12:27:47;;;;;;;1.23;1.13;;;;;;;28.28;29.26;101821.97;5062151;28;20032;-39
2022/09/20 12:30:18;;;;;;;1.30;1.20;;;;;;;28.55;29.83;101813.34;5070560;28;20119;-47
2022/09/20 12:32:50;;;;;;;1.88;1.15;;;;;;;28.56;30.98;101798.41;5079186;28;20105;-39
2022/09/20 12:35:58;;;;;;;1.10;1.00;;;;;;;28.63;28.56;101818.28;5096703;28;20091;-40